NCAR-RAP Real-Time Weather Data

Output produced by METARs form (17 October 2018  15:36 UTC)
found at http://weather.rap.ucar.edu/surface/
 
RJOK 171100Z 34005KT 9999 FEW025 SCT/// 16/10 Q1012
RJOK 171000Z 35005KT 9999 FEW030 SCT/// 16/10 Q1012
RJOK 170900Z 30005KT 9999 FEW030 SCT080 BKN/// 19/11 Q1012
RJOK 170800Z 34007KT 9999 FEW030 BKN/// 21/07 Q1011
RJOK 170700Z 23005KT 190V250 9999 FEW030 SCT070 BKN/// 22/12 Q1011
RJOK 170600Z VRB01KT 9999 FEW035 BKN/// 23/12 Q1010
RJOK 170500Z VRB04KT 9999 FEW035 SCT/// 24/11 Q1010
RJOK 170400Z 35009KT 9999 FEW035 BKN/// 23/11 Q1010
RJOK 170300Z VRB02KT 9999 FEW030 SCT040 BKN/// 22/11 Q1011
RJOK 170200Z 15006KT 9999 FEW035 BKN/// 23/13 Q1011
RJOK 170100Z 14004KT 110V180 9999 FEW030 BKN/// 22/12 Q1011
RJOK 170000Z 02007KT 9999 FEW030 SCT110 BKN/// 21/13 Q1011
RJOK 162300Z 34004KT 300V010 9999 FEW030 BKN110 18/14 Q1011
RJOK 162200Z 33005KT 9999 FEW030 BKN110 17/14 Q1011
RJOK 162110Z 34005KT 9999 FEW030 BKN110 16/13 Q1011 RMK 1CU030 7AC110 A2986
RJOK 161100Z VRB02KT 9999 FEW020 BKN025 BKN110 18/15 Q1011
RJOK 161000Z VRB02KT 9999 FEW020 BKN025 BKN110 19/15 Q1011
RJOK 160900Z 19005KT 160V230 9999 VCSH FEW020 BKN030 BKN120 19/14 Q1011
RJOK 160800Z 31003KT 9999 VCSH FEW030 BKN120 19/15 Q1010
RJOK 160700Z 23005KT 9999 VCSH FEW030 BKN120 20/13 Q1010
RJOK 160600Z 25004KT 9999 VCSH FEW030 SCT080 BKN110 21/13 Q1010
RJOK 160500Z 17003KT 140V220 9999 VCSH FEW030 SCT080 BKN100 21/13 Q1011
RJOK 160400Z 29004KT 9999 -RA FEW020 SCT060 BKN100 21/15 Q1011
RJOK 160300Z 35003KT 270V020 9999 -RA FEW030 BKN070 BKN100 21/14 Q1012
RJOK 160200Z 35003KT 310V030 9999 -RA FEW030 SCT090 BKN100 21/13 Q1013
RJOK 160100Z 01007KT 9999 FEW035 SCT090 BKN100 21/13 Q1013
RJOK 160000Z 35007KT 320V020 9999 FEW045 SCT090 BKN130 19/13 Q1014
RJOK 152300Z 34007KT CAVOK 17/12 Q1014
RJOK 152200Z 33007KT CAVOK 16/13 Q1014
RJOK 152110Z 36006KT CAVOK 16/11 Q1014 RMK A2996
RJOK 151100Z 35006KT 9999 FEW030 SCT/// 17/13 Q1017
RJOK 151000Z 01003KT 9999 FEW030 SCT/// 18/13 Q1016
RJOK 150900Z VRB01KT 9999 FEW035 SCT/// 19/13 Q1015
RJOK 150800Z 18003KT 9999 FEW035 BKN/// 21/12 Q1015
RJOK 150700Z 15003KT 100V190 9999 FEW035 BKN/// 22/10 Q1015
RJOK 150600Z 15007KT 120V180 9999 FEW035 BKN/// 23/12 Q1015
RJOK 150500Z 17005KT 120V210 9999 FEW035 SCT170 BKN/// 23/11 Q1015
RJOK 150400Z 18005KT 120V240 9999 FEW035 BKN130 23/11 Q1016